createdAt,value
2018-12-10T00:02:43.690Z,81.37
2018-12-10T00:06:52.046Z,82.69
2018-12-10T00:10:57.988Z,82.07
2018-12-10T00:15:04.663Z,82.87
2018-12-10T00:19:11.968Z,81.80
2018-12-10T00:23:19.182Z,81.92
2018-12-10T00:27:24.924Z,81.40
2018-12-10T00:31:30.811Z,81.29
2018-12-10T00:35:36.822Z,81.10
2018-12-10T00:39:42.598Z,80.71
2018-12-10T00:43:48.449Z,80.89
2018-12-10T00:47:55.305Z,80.77
2018-12-10T00:52:01.113Z,80.99
2018-12-10T00:56:07.263Z,80.68
2018-12-10T01:00:13.494Z,80.81
2018-12-10T01:04:20.268Z,81.53
2018-12-10T01:08:26.416Z,81.15
2018-12-10T01:12:32.587Z,81.52
2018-12-10T01:16:38.999Z,81.43
2018-12-10T01:20:44.986Z,81.17
2018-12-10T01:24:50.832Z,81.44
2018-12-10T01:28:56.772Z,82.87
2018-12-10T01:33:02.661Z,83.40
2018-12-10T01:37:10.431Z,84.20
2018-12-10T01:41:16.758Z,84.43
2018-12-10T01:45:22.659Z,84.12
2018-12-10T01:49:28.479Z,84.61
2018-12-10T01:53:34.515Z,84.68
2018-12-10T01:57:41.462Z,84.52
2018-12-10T02:01:48.685Z,83.41
2018-12-10T02:05:54.866Z,83.74
2018-12-10T02:10:00.771Z,83.60
2018-12-10T02:14:07.963Z,83.31
2018-12-10T02:18:14.062Z,82.67
2018-12-10T02:22:20.583Z,81.51
2018-12-10T02:26:26.444Z,82.19
2018-12-10T02:30:32.303Z,83.12
2018-12-10T02:34:39.260Z,84.87
2018-12-10T02:38:45.083Z,86.25
2018-12-10T02:42:52.565Z,87.82
2018-12-10T02:46:58.441Z,88.33
2018-12-10T02:51:04.667Z,88.10
2018-12-10T02:55:10.598Z,85.10
2018-12-10T02:59:17.077Z,84.36
2018-12-10T03:03:23.188Z,86.04
2018-12-10T03:07:29.349Z,85.46
2018-12-10T03:11:34.882Z,85.47
2018-12-10T03:15:41.911Z,86.54
2018-12-10T03:19:47.819Z,86.10
2018-12-10T03:23:53.469Z,85.95
2018-12-10T03:27:59.473Z,86.11
2018-12-10T03:32:07.126Z,86.01
2018-12-10T03:36:13.213Z,85.83
2018-12-10T03:40:20.086Z,85.75
2018-12-10T03:44:26.006Z,85.09
2018-12-10T03:48:32.047Z,85.23
2018-12-10T03:52:38.082Z,85.46
2018-12-10T03:56:43.968Z,86.46
2018-12-10T04:00:49.492Z,86.25
2018-12-10T04:04:55.469Z,86.65
2018-12-10T04:09:01.348Z,86.45
2018-12-10T04:13:09.234Z,86.54
2018-12-10T04:17:14.948Z,86.09
2018-12-10T04:21:21.030Z,85.64
2018-12-10T04:25:27.023Z,85.93
2018-12-10T04:29:33.187Z,84.74
2018-12-10T04:33:39.968Z,83.24
2018-12-10T04:37:45.930Z,84.36
2018-12-10T04:41:52.661Z,84.24
2018-12-10T04:45:58.519Z,84.70
2018-12-10T04:50:04.975Z,84.20
2018-12-10T04:54:10.775Z,84.27
2018-12-10T04:58:16.422Z,84.78
2018-12-10T05:02:22.462Z,83.80
2018-12-10T05:06:28.376Z,84.87
2018-12-10T05:10:34.372Z,84.82
2018-12-10T05:14:40.055Z,84.10
2018-12-10T05:18:45.809Z,84.35
2018-12-10T05:22:51.917Z,83.80
2018-12-10T05:26:58.043Z,83.93
2018-12-10T05:31:04.170Z,85.48
2018-12-10T05:35:09.877Z,84.34
2018-12-10T05:39:15.749Z,82.90
2018-12-10T05:43:21.968Z,83.95
2018-12-10T05:47:28.987Z,84.27
2018-12-10T05:51:35.106Z,84.39
2018-12-10T05:55:44.311Z,84.72
2018-12-10T05:59:50.897Z,84.51
2018-12-10T06:03:57.144Z,85.00
2018-12-10T06:08:03.227Z,84.90
2018-12-10T06:12:09.342Z,84.77
2018-12-10T06:16:16.707Z,85.10
2018-12-10T06:20:23.166Z,85.41
2018-12-10T06:24:29.017Z,85.00
2018-12-10T06:28:34.900Z,84.34
2018-12-10T06:32:40.780Z,84.75
2018-12-10T06:36:47.411Z,84.88
2018-12-10T06:40:55.764Z,84.72
2018-12-10T06:45:01.653Z,84.58
2018-12-10T06:49:07.419Z,83.99
2018-12-10T06:53:14.242Z,83.80
2018-12-10T06:57:20.339Z,83.70
2018-12-10T07:01:26.409Z,83.64
2018-12-10T07:05:32.653Z,82.94
2018-12-10T07:09:39.344Z,82.31
2018-12-10T07:13:45.003Z,82.88
2018-12-10T07:17:50.686Z,82.17
2018-12-10T07:21:56.218Z,81.92
2018-12-10T07:26:01.812Z,82.86
2018-12-10T07:30:09.747Z,84.18
2018-12-10T07:34:15.593Z,84.97
2018-12-10T07:38:21.303Z,86.59
2018-12-10T07:42:27.473Z,87.43
2018-12-10T07:46:33.904Z,87.03
2018-12-10T07:50:39.526Z,87.61
2018-12-10T07:54:45.400Z,87.89
2018-12-10T07:58:50.998Z,86.73
2018-12-10T08:02:56.730Z,86.25
2018-12-10T08:07:02.324Z,86.42
2018-12-10T08:11:07.948Z,86.91
2018-12-10T08:15:13.788Z,86.52
2018-12-10T08:19:19.440Z,85.91
2018-12-10T08:23:25.678Z,84.97
2018-12-10T08:27:31.323Z,84.78
2018-12-10T08:31:37.218Z,84.52
2018-12-10T08:35:43.369Z,84.60
2018-12-10T08:39:48.964Z,85.12
2018-12-10T08:43:54.554Z,84.24
2018-12-10T08:48:00.210Z,83.98
2018-12-10T08:52:05.975Z,83.28
2018-12-10T08:56:11.638Z,84.09
2018-12-10T09:00:17.265Z,83.77
2018-12-10T09:04:23.017Z,82.94
2018-12-10T09:08:28.726Z,82.25
2018-12-10T09:12:34.539Z,81.92
2018-12-10T09:16:40.420Z,81.82
2018-12-10T09:20:47.188Z,81.15
2018-12-10T09:24:52.931Z,81.23
2018-12-10T09:28:58.956Z,79.91
2018-12-10T09:33:04.681Z,80.27
2018-12-10T09:37:10.339Z,80.06
2018-12-10T09:41:16.102Z,79.11
2018-12-10T09:45:21.691Z,79.31
2018-12-10T09:49:27.496Z,78.53
2018-12-10T09:53:33.223Z,76.53
2018-12-10T09:57:40.375Z,74.52
2018-12-10T10:01:47.682Z,74.94
2018-12-10T10:05:53.342Z,73.97
2018-12-10T10:09:59.507Z,72.72
2018-12-10T10:14:05.900Z,71.31
2018-12-10T10:18:11.556Z,73.31
2018-12-10T10:22:17.226Z,72.15
2018-12-10T10:26:22.914Z,72.73
2018-12-10T10:30:29.214Z,73.24
2018-12-10T10:34:35.233Z,73.11
2018-12-10T10:38:41.013Z,72.91
2018-12-10T10:42:48.095Z,72.00
2018-12-10T10:46:54.143Z,71.56
2018-12-10T10:50:59.812Z,70.76
2018-12-10T10:55:06.032Z,70.64
2018-12-10T10:59:11.755Z,70.70
2018-12-10T11:03:50.930Z,70.42
2018-12-10T11:07:56.521Z,71.13
2018-12-10T11:12:02.619Z,70.75
2018-12-10T11:16:09.004Z,70.15
2018-12-10T11:20:15.262Z,70.20
2018-12-10T11:24:21.116Z,70.34
2018-12-10T11:28:26.737Z,69.72
2018-12-10T11:32:32.484Z,70.28
2018-12-10T11:36:38.242Z,69.92
2018-12-10T11:40:44.042Z,71.70
2018-12-10T11:44:50.687Z,72.67
2018-12-10T11:48:57.545Z,75.36
2018-12-10T11:53:03.124Z,74.55
2018-12-10T11:57:08.857Z,74.72
2018-12-10T12:01:14.677Z,73.71
2018-12-10T12:05:20.311Z,74.10
2018-12-10T12:09:25.914Z,75.19
2018-12-10T12:13:31.544Z,75.08
2018-12-10T12:17:38.064Z,75.42
2018-12-10T12:21:43.880Z,77.02
2018-12-10T12:25:49.540Z,78.50
2018-12-10T12:29:55.192Z,80.45
2018-12-10T12:34:01.970Z,80.71
2018-12-10T12:38:07.731Z,80.63
2018-12-10T12:42:13.594Z,80.57
2018-12-10T12:46:19.324Z,78.03
2018-12-10T12:50:24.967Z,78.19
2018-12-10T12:54:30.590Z,78.15
2018-12-10T12:58:36.134Z,79.13
2018-12-10T13:02:42.381Z,79.81
2018-12-10T13:06:48.597Z,80.52
2018-12-10T13:10:54.198Z,80.00
2018-12-10T13:14:59.816Z,80.02
2018-12-10T13:19:05.677Z,79.61
2018-12-10T13:23:11.576Z,78.49
2018-12-10T13:27:17.166Z,78.20
2018-12-10T13:31:22.836Z,77.44
2018-12-10T13:35:29.471Z,77.15
2018-12-10T13:39:36.037Z,77.21
2018-12-10T13:43:42.674Z,76.78
2018-12-10T13:47:51.560Z,76.69
2018-12-10T13:51:59.580Z,77.61
2018-12-10T13:56:05.367Z,76.82
2018-12-10T14:00:12.359Z,77.17
2018-12-10T14:04:23.601Z,77.93
2018-12-10T14:08:29.489Z,77.16
2018-12-10T14:12:35.350Z,78.49
2018-12-10T14:16:41.122Z,79.19
2018-12-10T14:20:48.000Z,79.10
2018-12-10T14:24:54.163Z,79.71
2018-12-10T14:29:01.045Z,80.47
2018-12-10T14:33:07.051Z,81.27
2018-12-10T14:37:13.670Z,80.91
2018-12-10T14:41:19.338Z,81.20
2018-12-10T14:45:25.275Z,81.26
2018-12-10T14:49:31.295Z,81.47
2018-12-10T14:53:37.227Z,80.30
2018-12-10T14:57:43.118Z,80.06
2018-12-10T15:01:53.617Z,80.57
2018-12-10T15:05:59.525Z,81.02
2018-12-10T15:10:07.460Z,81.82
2018-12-10T15:14:13.122Z,81.57
2018-12-10T15:18:18.686Z,81.11
2018-12-10T15:22:25.207Z,80.22
2018-12-10T15:26:30.863Z,79.89
2018-12-10T15:30:37.647Z,80.01
2018-12-10T15:34:43.713Z,79.96
2018-12-10T15:38:50.608Z,80.03
2018-12-10T15:42:56.299Z,79.81
2018-12-10T15:47:04.192Z,79.98
2018-12-10T15:51:12.056Z,80.21
2018-12-10T15:55:17.672Z,79.36
2018-12-10T15:59:23.448Z,79.56
2018-12-10T16:03:29.091Z,78.96
2018-12-10T16:07:35.144Z,78.71
2018-12-10T16:11:40.850Z,79.68
2018-12-10T16:15:46.731Z,79.06
2018-12-10T16:19:52.916Z,79.68
2018-12-10T16:23:58.837Z,79.24
2018-12-10T16:28:04.819Z,78.82
2018-12-10T16:32:10.508Z,78.00
2018-12-10T16:36:16.706Z,78.03
2018-12-10T16:40:23.934Z,78.10
2018-12-10T16:44:31.008Z,76.07
2018-12-10T16:48:37.158Z,75.28
2018-12-10T16:52:45.231Z,73.92
2018-12-10T16:56:51.804Z,73.65
2018-12-10T17:00:58.138Z,74.15
2018-12-10T17:05:10.882Z,72.72
2018-12-10T17:09:17.848Z,72.37
2018-12-10T17:13:23.970Z,73.34
2018-12-10T17:17:29.949Z,72.06
2018-12-10T17:21:36.947Z,71.63
2018-12-10T17:25:42.761Z,71.96
2018-12-10T17:29:49.413Z,72.40
2018-12-10T17:33:56.343Z,72.88
2018-12-10T17:38:02.992Z,72.64
2018-12-10T17:42:11.209Z,71.59
2018-12-10T17:46:17.607Z,72.38
2018-12-10T17:50:23.493Z,72.34
2018-12-10T17:54:29.786Z,73.53
2018-12-10T17:58:35.721Z,74.07
2018-12-10T18:02:44.417Z,72.54
2018-12-10T18:06:50.540Z,72.68
2018-12-10T18:10:57.680Z,72.27
2018-12-10T18:15:05.802Z,72.92
2018-12-10T18:19:14.757Z,73.74
2018-12-10T18:23:21.999Z,74.39
2018-12-10T18:27:28.094Z,75.15
2018-12-10T18:31:33.894Z,74.85
2018-12-10T18:35:41.011Z,75.49
2018-12-10T18:39:53.208Z,78.05
2018-12-10T18:44:01.790Z,78.99
2018-12-10T18:48:15.476Z,79.81
2018-12-10T18:52:21.840Z,80.86
2018-12-10T18:56:30.472Z,81.52
2018-12-10T19:00:38.010Z,81.12
2018-12-10T19:04:44.326Z,81.63
2018-12-10T19:08:51.990Z,81.88
2018-12-10T19:17:13.475Z,78.11
2018-12-10T19:21:21.984Z,78.87
2018-12-10T19:25:43.984Z,77.74
2018-12-10T19:29:50.149Z,77.65
2018-12-10T19:33:56.746Z,78.96
2018-12-10T19:38:03.010Z,75.82
2018-12-10T19:42:10.250Z,76.37
2018-12-10T19:46:16.272Z,77.47
2018-12-10T19:50:22.418Z,76.88
2018-12-10T19:54:29.660Z,75.64
2018-12-10T19:58:37.948Z,75.48
2018-12-10T20:02:44.136Z,76.29
2018-12-10T20:06:56.940Z,77.51
2018-12-10T20:11:03.137Z,77.04
2018-12-10T20:15:10.658Z,78.00
2018-12-10T20:19:17.832Z,76.77
2018-12-10T20:23:23.875Z,77.20
2018-12-10T20:27:31.210Z,75.98
2018-12-10T20:31:37.354Z,76.72
2018-12-10T20:35:44.596Z,77.25
2018-12-10T20:39:50.610Z,75.94
2018-12-10T20:43:56.979Z,75.00
2018-12-10T20:48:04.436Z,75.66
2018-12-10T20:52:12.947Z,76.10
2018-12-10T20:56:19.327Z,75.65
2018-12-10T21:00:25.363Z,74.27
2018-12-10T21:04:31.812Z,75.09
2018-12-10T21:08:38.552Z,75.52
2018-12-10T21:12:44.963Z,75.11
2018-12-10T21:16:50.966Z,74.83
2018-12-10T21:20:58.425Z,76.02
2018-12-10T21:25:07.100Z,75.74
2018-12-10T21:29:13.408Z,75.54
2018-12-10T21:33:20.160Z,75.94
2018-12-10T21:37:26.820Z,75.73
2018-12-10T21:41:32.988Z,75.24
2018-12-10T21:45:39.195Z,75.07
2018-12-10T21:49:46.821Z,75.52
2018-12-10T21:53:53.358Z,74.93
2018-12-10T21:57:59.347Z,74.86
2018-12-10T22:02:05.330Z,74.64
2018-12-10T22:10:48.024Z,75.20
2018-12-10T22:14:54.548Z,75.60
2018-12-10T22:19:00.531Z,74.90
2018-12-10T22:23:06.812Z,74.25
2018-12-10T22:27:13.051Z,74.58
2018-12-10T22:31:19.295Z,74.91
2018-12-10T22:35:26.404Z,74.49
2018-12-10T22:39:32.162Z,74.59
2018-12-10T22:43:38.317Z,75.06
2018-12-10T22:47:44.758Z,75.08
2018-12-10T22:51:50.505Z,75.15
2018-12-10T22:55:56.511Z,75.01
2018-12-10T23:00:07.206Z,75.57
2018-12-10T23:04:14.987Z,75.17
2018-12-10T23:08:21.714Z,75.11
2018-12-10T23:12:27.647Z,73.94
2018-12-10T23:16:33.640Z,73.58
2018-12-10T23:20:39.686Z,74.64
2018-12-10T23:24:45.626Z,74.59
2018-12-10T23:28:51.528Z,74.09
2018-12-10T23:32:57.511Z,74.42
2018-12-10T23:37:03.715Z,73.90
2018-12-10T23:41:09.483Z,73.30
2018-12-10T23:45:16.469Z,74.17
2018-12-10T23:49:22.422Z,73.84
2018-12-10T23:53:28.123Z,74.28
2018-12-10T23:57:33.917Z,74.44
